Kaspiysk, Russia
Current Conditions -  °F | °C
As of 6:00 AM on Tuesday 21 Oct 2014 (Local Time) from URML Reporting Station
Scattered Clouds Scattered Clouds  
Wind Chill: 33°   Ceiling: Unl
Heat Index: 39°   Visibility: 6mi
Dew Point: 36°   Wind: 9mph
Humidity: 87%   Direction: 330°NNW
Pressure: 29.97"   Gusts: NA
Location:  42.88°N, 47.64°E
Report Text: URML 210300Z 33004MPS 9999 SCT100 04/02 Q1015 NOSIG RMKQFE761/1015
Loading
Personal Weather Stations






























Interactive Weather Map
Tropical Storm Tracking
New forecast layout! Learn more

10-Day Weather Forecast

Advertisements
Track Severe Weather on mobile